createdAt,value
2018-07-08T00:01:34.757Z,138.83
2018-07-08T00:04:03.319Z,101.30
2018-07-08T00:06:31.953Z,166.73
2018-07-08T00:09:00.575Z,166.70
2018-07-08T00:11:29.163Z,214.57
2018-07-08T00:13:57.723Z,258.03
2018-07-08T00:16:26.360Z,259.30
2018-07-08T00:18:54.897Z,234.80
2018-07-08T00:21:23.489Z,290.27
2018-07-08T00:23:52.116Z,246.00
2018-07-08T00:26:20.719Z,243.73
2018-07-08T00:28:49.281Z,246.43
2018-07-08T00:31:17.483Z,240.97
2018-07-08T00:33:46.091Z,248.57
2018-07-08T00:36:14.666Z,262.00
2018-07-08T00:38:43.291Z,267.53
2018-07-08T00:41:11.872Z,253.50
2018-07-08T00:43:40.446Z,290.87
2018-07-08T00:46:09.125Z,317.07
2018-07-08T00:48:37.673Z,305.23
2018-07-08T00:51:06.618Z,284.00
2018-07-08T00:53:35.155Z,298.43
2018-07-08T00:56:03.793Z,316.60
2018-07-08T00:58:32.407Z,325.77
2018-07-08T01:01:01.003Z,326.87
2018-07-08T01:03:29.620Z,343.43
2018-07-08T01:05:58.227Z,327.73
2018-07-08T01:08:26.824Z,340.27
2018-07-08T01:10:55.417Z,312.83
2018-07-08T01:13:23.662Z,328.33
2018-07-08T01:15:52.216Z,326.10
2018-07-08T01:18:20.801Z,285.40
2018-07-08T01:20:49.404Z,272.40
2018-07-08T01:23:17.983Z,282.30
2018-07-08T01:25:57.868Z,295.80
2018-07-08T01:28:26.514Z,290.27
2018-07-08T01:30:55.075Z,305.17
2018-07-08T01:33:23.696Z,296.90
2018-07-08T01:35:52.247Z,314.70
2018-07-08T01:38:20.885Z,316.13
2018-07-08T01:40:49.481Z,312.60
2018-07-08T01:43:18.068Z,304.33
2018-07-08T01:45:46.664Z,308.73
2018-07-08T01:48:15.228Z,300.20
2018-07-08T01:50:43.919Z,297.67
2018-07-08T01:53:12.588Z,221.73
2018-07-08T01:55:41.221Z,204.80
2018-07-08T01:58:09.750Z,179.60
2018-07-08T02:00:38.352Z,183.77
2018-07-08T02:03:11.699Z,176.07
2018-07-08T02:05:40.644Z,206.27
2018-07-08T02:08:09.235Z,203.03
2018-07-08T02:10:38.335Z,186.20
2018-07-08T02:13:07.039Z,194.50
2018-07-08T02:15:35.325Z,171.10
2018-07-08T02:18:03.919Z,169.83
2018-07-08T02:20:32.561Z,179.93
2018-07-08T02:23:01.517Z,164.77
2018-07-08T02:25:30.236Z,164.00
2018-07-08T02:27:58.892Z,198.40
2018-07-08T02:30:27.476Z,201.30
2018-07-08T02:32:56.023Z,204.17
2018-07-08T02:35:24.892Z,193.07
2018-07-08T02:37:54.137Z,226.80
2018-07-08T02:40:22.678Z,257.50
2018-07-08T02:42:52.552Z,264.57
2018-07-08T02:45:21.132Z,269.80
2018-07-08T02:47:49.804Z,282.03
2018-07-08T02:50:18.364Z,235.57
2018-07-08T02:52:47.124Z,194.97
2018-07-08T02:55:15.755Z,186.23
2018-07-08T02:57:44.344Z,180.70
2018-07-08T03:00:13.146Z,170.27
2018-07-08T03:02:41.748Z,208.80
2018-07-08T03:05:10.290Z,208.40
2018-07-08T03:07:38.850Z,219.93
2018-07-08T03:10:07.429Z,234.03
2018-07-08T03:12:36.013Z,219.17
2018-07-08T03:15:04.649Z,226.33
2018-07-08T03:17:33.263Z,235.67
2018-07-08T03:20:01.868Z,236.10
2018-07-08T03:22:30.084Z,221.37
2018-07-08T03:24:58.666Z,237.13
2018-07-08T03:27:27.188Z,234.33
2018-07-08T03:29:55.749Z,216.17
2018-07-08T03:32:24.311Z,246.37
2018-07-08T03:34:52.908Z,221.90
2018-07-08T03:37:21.480Z,244.20
2018-07-08T03:39:50.037Z,232.53
2018-07-08T03:42:18.608Z,243.77
2018-07-08T03:44:47.198Z,246.33
2018-07-08T03:47:15.716Z,241.80
2018-07-08T03:49:44.267Z,269.53
2018-07-08T03:52:12.831Z,244.53
2018-07-08T03:54:41.433Z,244.87
2018-07-08T03:57:09.957Z,239.97
2018-07-08T03:59:38.556Z,203.00
2018-07-08T04:02:07.143Z,212.23
2018-07-08T04:04:35.908Z,193.47
2018-07-08T04:07:04.519Z,163.20
2018-07-08T04:09:33.042Z,168.10
2018-07-08T04:12:01.603Z,173.57
2018-07-08T04:14:30.157Z,166.53
2018-07-08T04:16:58.713Z,196.60
2018-07-08T04:19:27.280Z,189.87
2018-07-08T04:21:55.843Z,203.33
2018-07-08T04:24:24.367Z,234.50
2018-07-08T04:26:52.582Z,267.13
2018-07-08T04:29:21.160Z,270.77
2018-07-08T04:31:49.884Z,262.30
2018-07-08T04:34:18.419Z,290.87
2018-07-08T04:36:46.981Z,273.57
2018-07-08T04:39:15.576Z,272.70
2018-07-08T04:41:44.176Z,264.70
2018-07-08T04:44:12.694Z,270.00
2018-07-08T04:46:41.259Z,260.17
2018-07-08T04:49:09.872Z,217.27
2018-07-08T04:51:38.388Z,201.83
2018-07-08T04:54:06.951Z,214.97
2018-07-08T04:56:35.535Z,227.50
2018-07-08T04:59:04.093Z,241.63
2018-07-08T05:01:32.659Z,260.23
2018-07-08T05:04:01.266Z,294.87
2018-07-08T05:06:29.862Z,274.20
2018-07-08T05:08:58.091Z,247.03
2018-07-08T05:11:26.667Z,267.30
2018-07-08T05:13:55.228Z,281.43
2018-07-08T05:16:23.772Z,298.87
2018-07-08T05:18:52.365Z,315.70
2018-07-08T05:21:20.996Z,343.77
2018-07-08T05:23:49.608Z,369.60
2018-07-08T05:26:18.195Z,386.60
2018-07-08T05:28:46.748Z,392.73
2018-07-08T05:31:15.361Z,379.10
2018-07-08T05:33:43.941Z,389.03
2018-07-08T05:36:12.457Z,346.90
2018-07-08T05:38:41.157Z,342.30
2018-07-08T05:41:09.728Z,320.07
2018-07-08T05:43:38.336Z,340.47
2018-07-08T05:46:06.617Z,326.20
2018-07-08T05:48:35.158Z,298.33
2018-07-08T05:51:03.784Z,247.37
2018-07-08T05:53:32.023Z,149.20
2018-07-08T05:56:00.596Z,140.07
2018-07-08T05:58:29.198Z,147.67
2018-07-08T06:00:57.794Z,140.77
2018-07-08T06:03:26.318Z,137.07
2018-07-08T06:05:54.881Z,103.50
2018-07-08T06:08:23.424Z,185.80
2018-07-08T06:10:51.970Z,220.30
2018-07-08T06:13:20.562Z,201.40
2018-07-08T06:15:49.136Z,198.87
2018-07-08T06:18:17.728Z,166.73
2018-07-08T06:20:46.273Z,223.53
2018-07-08T06:23:14.851Z,147.80
2018-07-08T06:25:43.418Z,112.00
2018-07-08T06:28:12.038Z,62.77
2018-07-08T06:30:40.551Z,49.10
2018-07-08T06:33:09.132Z,70.37
2018-07-08T06:35:37.676Z,51.77
2018-07-08T06:38:06.260Z,88.33
2018-07-08T06:40:34.814Z,115.10
2018-07-08T06:43:03.410Z,201.43
2018-07-08T06:45:32.024Z,219.43
2018-07-08T06:48:00.591Z,297.73
2018-07-08T06:50:29.400Z,342.07
2018-07-08T06:52:57.930Z,374.67
2018-07-08T06:55:26.657Z,471.50
2018-07-08T06:57:55.242Z,343.63
2018-07-08T07:00:23.479Z,302.30
2018-07-08T07:02:52.077Z,350.13
2018-07-08T07:05:20.603Z,334.97
2018-07-08T07:07:49.204Z,315.07
2018-07-08T07:10:17.773Z,277.40
2018-07-08T07:12:46.066Z,284.97
2018-07-08T07:15:15.208Z,194.90
2018-07-08T07:17:43.800Z,100.43
2018-07-08T07:20:12.416Z,119.20
2018-07-08T07:22:40.981Z,171.63
2018-07-08T07:25:09.849Z,226.87
2018-07-08T07:27:38.548Z,140.77
2018-07-08T07:30:07.198Z,129.43
2018-07-08T07:32:35.845Z,126.10
2018-07-08T07:35:04.493Z,63.57
2018-07-08T07:37:33.033Z,57.40
2018-07-08T07:40:01.609Z,37.47
2018-07-08T07:42:30.202Z,40.23
2018-07-08T07:44:58.723Z,40.03
2018-07-08T07:47:27.273Z,43.23
2018-07-08T07:49:55.812Z,41.47
2018-07-08T07:52:24.427Z,44.20
2018-07-08T07:54:52.967Z,46.13
2018-07-08T07:57:21.549Z,72.87
2018-07-08T07:59:50.145Z,83.10
2018-07-08T08:02:18.657Z,48.37
2018-07-08T08:04:47.219Z,71.10
2018-07-08T08:07:15.845Z,76.83
2018-07-08T08:09:44.355Z,99.50
2018-07-08T08:12:12.876Z,90.47
2018-07-08T08:14:41.464Z,77.07
2018-07-08T08:17:10.055Z,92.70
2018-07-08T08:19:38.310Z,86.67
2018-07-08T08:22:06.990Z,86.33
2018-07-08T08:24:35.517Z,94.07
2018-07-08T08:27:04.107Z,87.10
2018-07-08T08:29:32.616Z,97.43
2018-07-08T08:32:01.351Z,118.27
2018-07-08T08:35:05.653Z,124.77
2018-07-08T08:37:36.532Z,73.57
2018-07-08T08:40:05.956Z,47.30
2018-07-08T08:42:34.549Z,33.20
2018-07-08T08:45:05.490Z,37.17
2018-07-08T08:47:34.350Z,49.97
2018-07-08T08:50:02.932Z,24.23
2018-07-08T08:52:31.551Z,24.13
2018-07-08T08:55:00.113Z,28.47
2018-07-08T08:57:28.648Z,18.43
2018-07-08T08:59:57.472Z,21.93
2018-07-08T09:02:26.076Z,30.53
2018-07-08T09:04:54.616Z,29.20
2018-07-08T09:07:23.309Z,41.33
2018-07-08T09:09:51.885Z,40.00
2018-07-08T09:12:20.460Z,26.83
2018-07-08T09:14:49.020Z,71.87
2018-07-08T09:17:17.652Z,72.30
2018-07-08T09:19:46.210Z,69.33
2018-07-08T09:22:14.805Z,66.97
2018-07-08T09:24:43.415Z,60.43
2018-07-08T09:27:11.949Z,81.00
2018-07-08T09:29:40.521Z,56.97
2018-07-08T09:32:09.127Z,51.03
2018-07-08T09:34:37.688Z,62.20
2018-07-08T09:37:06.226Z,32.50
2018-07-08T09:39:34.807Z,28.20
2018-07-08T09:42:03.048Z,26.80
2018-07-08T09:47:04.347Z,43.20
2018-07-08T09:49:32.929Z,72.70
2018-07-08T09:52:01.280Z,56.83
2018-07-08T09:54:29.879Z,49.20
2018-07-08T09:56:58.423Z,29.37
2018-07-08T09:59:26.992Z,16.93
2018-07-08T10:01:55.547Z,17.67
2018-07-08T10:04:25.044Z,17.33
2018-07-08T10:06:54.447Z,15.80
2018-07-08T10:09:24.126Z,17.63
2018-07-08T10:11:52.710Z,17.90
2018-07-08T10:14:22.459Z,17.07
2018-07-08T10:16:50.989Z,11.87
2018-07-08T10:19:20.342Z,12.43
2018-07-08T10:21:48.899Z,9.60
2018-07-08T10:24:17.480Z,10.43
2018-07-08T10:28:54.689Z,12.27
2018-07-08T10:31:34.533Z,12.60
2018-07-08T10:34:03.124Z,11.00
2018-07-08T10:36:31.719Z,11.10
2018-07-08T10:39:00.277Z,10.20
2018-07-08T10:41:28.842Z,9.40
2018-07-08T10:43:57.421Z,8.80
2018-07-08T10:46:26.015Z,8.97
2018-07-08T10:48:55.347Z,8.63
2018-07-08T10:51:23.949Z,10.20
2018-07-08T10:53:52.544Z,9.80
2018-07-08T10:56:21.055Z,10.77
2018-07-08T10:58:49.761Z,13.67
2018-07-08T11:01:18.278Z,13.07
2018-07-08T11:03:46.848Z,17.93
2018-07-08T11:06:15.423Z,16.93
2018-07-08T11:08:43.939Z,16.30
2018-07-08T11:11:12.550Z,16.93
2018-07-08T11:13:43.072Z,15.43
2018-07-08T11:16:11.649Z,16.10
2018-07-08T11:18:40.403Z,22.47
2018-07-08T11:21:09.480Z,29.43
2018-07-08T11:23:39.993Z,49.67
2018-07-08T11:26:10.135Z,47.17
2018-07-08T11:28:38.402Z,62.80
2018-07-08T11:31:07.404Z,64.20
2018-07-08T11:33:37.616Z,55.03
2018-07-08T11:36:06.887Z,46.97
2018-07-08T11:38:37.881Z,61.57
2018-07-08T11:41:09.886Z,36.20
2018-07-08T11:43:38.460Z,9.63
2018-07-08T11:46:07.096Z,10.93
2018-07-08T11:48:35.700Z,5.73
2018-07-08T11:51:04.324Z,6.47
2018-07-08T11:53:32.839Z,6.40
2018-07-08T11:56:01.551Z,6.70
2018-07-08T11:58:30.133Z,7.33
2018-07-08T12:00:58.683Z,8.47
2018-07-08T12:03:27.278Z,6.73
2018-07-08T12:05:55.909Z,11.00
2018-07-08T12:08:24.444Z,10.00
2018-07-08T12:10:53.006Z,11.73
2018-07-08T12:13:21.611Z,11.07
2018-07-08T12:15:50.168Z,6.33
2018-07-08T12:18:18.710Z,9.23
2018-07-08T12:20:47.303Z,9.70
2018-07-08T12:23:15.852Z,9.80
2018-07-08T12:25:44.613Z,8.40
2018-07-08T12:28:13.192Z,6.70
2018-07-08T12:30:41.752Z,6.27
2018-07-08T12:33:10.336Z,8.50
2018-07-08T12:35:38.972Z,9.73
2018-07-08T12:38:07.528Z,9.70
2018-07-08T12:40:36.081Z,9.20
2018-07-08T12:43:04.719Z,8.33
2018-07-08T12:45:33.371Z,8.30
2018-07-08T12:48:01.921Z,8.13
2018-07-08T12:50:30.511Z,7.80
2018-07-08T12:52:59.073Z,9.00
2018-07-08T12:55:27.578Z,11.53
2018-07-08T12:57:56.103Z,20.80
2018-07-08T13:00:26.367Z,26.37
2018-07-08T13:02:56.628Z,21.17
2018-07-08T13:05:27.002Z,25.37
2018-07-08T13:07:55.632Z,25.63
2018-07-08T13:10:24.176Z,29.53
2018-07-08T13:12:52.793Z,20.43
2018-07-08T13:15:21.336Z,29.07
2018-07-08T13:17:49.891Z,32.43
2018-07-08T13:20:18.497Z,34.90
2018-07-08T13:22:47.085Z,30.60
2018-07-08T13:25:15.685Z,26.70
2018-07-08T13:27:44.370Z,17.00
2018-07-08T13:30:13.073Z,15.83
2018-07-08T13:32:41.716Z,14.30
2018-07-08T13:35:10.249Z,14.40
2018-07-08T13:37:38.802Z,16.23
2018-07-08T13:40:07.359Z,14.67
2018-07-08T13:42:36.021Z,15.37
2018-07-08T13:45:04.681Z,15.87
2018-07-08T13:47:33.269Z,22.97
2018-07-08T13:50:02.098Z,24.10
2018-07-08T13:52:30.625Z,24.17
2018-07-08T13:54:59.212Z,29.00
2018-07-08T13:57:28.705Z,33.97
2018-07-08T13:59:57.312Z,41.13
2018-07-08T14:02:25.915Z,46.97
2018-07-08T14:04:54.448Z,35.07
2018-07-08T14:07:23.026Z,25.17
2018-07-08T14:09:51.577Z,28.87
2018-07-08T14:12:20.172Z,40.40
2018-07-08T14:14:48.502Z,39.30
2018-07-08T14:17:16.997Z,26.00
2018-07-08T14:19:45.635Z,29.10
2018-07-08T14:22:14.163Z,34.30
2018-07-08T14:24:42.985Z,33.70
2018-07-08T14:27:11.539Z,26.27
2018-07-08T14:29:40.252Z,20.90
2018-07-08T14:32:09.164Z,21.13
2018-07-08T14:34:37.760Z,20.43
2018-07-08T14:37:06.020Z,20.87
2018-07-08T14:39:34.563Z,20.10
2018-07-08T14:42:03.183Z,20.80
2018-07-08T14:44:31.809Z,21.93
2018-07-08T14:47:00.315Z,28.17
2018-07-08T14:49:29.060Z,37.73
2018-07-08T14:51:57.597Z,35.00
2018-07-08T14:54:26.220Z,29.87
2018-07-08T14:56:54.808Z,30.10
2018-07-08T14:59:23.391Z,22.67
2018-07-08T15:01:51.669Z,23.20
2018-07-08T15:04:20.216Z,27.40
2018-07-08T15:06:48.800Z,30.00
2018-07-08T15:09:17.335Z,23.87
2018-07-08T15:11:47.599Z,24.03
2018-07-08T15:14:16.137Z,21.70
2018-07-08T15:16:44.704Z,21.63
2018-07-08T15:19:13.304Z,22.50
2018-07-08T15:21:42.104Z,28.07
2018-07-08T15:24:10.620Z,30.57
2018-07-08T15:26:39.233Z,34.07
2018-07-08T15:29:07.900Z,27.40
2018-07-08T15:31:37.821Z,24.63
2018-07-08T15:34:06.432Z,23.50
2018-07-08T15:36:34.976Z,22.93
2018-07-08T15:39:04.290Z,22.20
2018-07-08T15:41:32.911Z,24.80
2018-07-08T15:44:01.516Z,30.93
2018-07-08T15:46:30.118Z,29.80
2018-07-08T15:48:58.707Z,29.70
2018-07-08T15:51:27.432Z,32.93
2018-07-08T15:53:56.997Z,32.53
2018-07-08T15:56:25.579Z,34.53
2018-07-08T15:58:54.297Z,32.87
2018-07-08T16:01:22.857Z,32.97
2018-07-08T16:03:51.464Z,29.60
2018-07-08T16:06:19.991Z,28.97
2018-07-08T16:08:48.549Z,26.57
2018-07-08T16:11:17.137Z,28.80
2018-07-08T16:13:45.379Z,30.63
2018-07-08T16:16:13.912Z,31.57
2018-07-08T16:18:42.245Z,29.53
2018-07-08T16:21:10.736Z,28.83
2018-07-08T16:23:39.315Z,18.70
2018-07-08T16:26:07.979Z,19.90
2018-07-08T16:28:36.556Z,27.90
2018-07-08T16:31:05.178Z,21.27
2018-07-08T16:33:33.736Z,19.77
2018-07-08T16:36:02.450Z,21.37
2018-07-08T16:38:31.012Z,20.90
2018-07-08T16:40:59.544Z,20.33
2018-07-08T16:43:27.841Z,20.27
2018-07-08T16:45:56.386Z,22.40
2018-07-08T16:48:25.590Z,27.73
2018-07-08T16:50:54.184Z,24.17
2018-07-08T16:53:22.762Z,29.37
2018-07-08T16:55:51.376Z,35.27
2018-07-08T16:58:20.021Z,33.07
2018-07-08T17:00:48.628Z,36.13
2018-07-08T17:03:17.237Z,36.40
2018-07-08T17:05:45.783Z,36.30
2018-07-08T17:08:14.404Z,34.17
2018-07-08T17:10:43.016Z,31.87
2018-07-08T17:13:11.580Z,34.70
2018-07-08T17:15:40.372Z,31.07
2018-07-08T17:18:08.908Z,29.23
2018-07-08T17:20:37.492Z,33.70
2018-07-08T17:23:06.084Z,33.03
2018-07-08T17:25:34.793Z,33.73
2018-07-08T17:28:03.032Z,26.80
2018-07-08T17:30:31.660Z,22.57
2018-07-08T17:33:00.300Z,18.73
2018-07-08T17:35:28.927Z,18.93
2018-07-08T17:37:57.540Z,17.80
2018-07-08T17:40:26.071Z,16.70
2018-07-08T17:42:54.652Z,18.83
2018-07-08T17:45:23.197Z,20.40
2018-07-08T17:47:51.871Z,19.60
2018-07-08T17:50:20.452Z,16.30
2018-07-08T17:52:49.063Z,15.33
2018-07-08T17:55:17.580Z,16.30
2018-07-08T17:57:46.310Z,15.07
2018-07-08T18:00:15.106Z,15.00
2018-07-08T18:02:43.672Z,15.00
2018-07-08T18:05:12.231Z,15.77
2018-07-08T18:07:40.813Z,16.80
2018-07-08T18:10:11.813Z,18.10
2018-07-08T18:12:40.453Z,20.70
2018-07-08T18:15:08.948Z,23.47
2018-07-08T18:17:37.546Z,27.00
2018-07-08T18:20:06.166Z,25.07
2018-07-08T18:22:35.269Z,24.53
2018-07-08T18:25:03.772Z,26.77
2018-07-08T18:27:32.011Z,23.13
2018-07-08T18:30:00.633Z,16.80
2018-07-08T18:32:29.175Z,17.37
2018-07-08T18:34:57.718Z,23.60
2018-07-08T18:37:26.257Z,38.83
2018-07-08T18:39:54.762Z,47.53
2018-07-08T18:42:23.332Z,56.67
2018-07-08T18:44:51.873Z,62.47
2018-07-08T18:47:20.469Z,47.33
2018-07-08T18:49:48.980Z,22.87
2018-07-08T18:52:17.485Z,15.23
2018-07-08T18:54:45.706Z,15.93
2018-07-08T18:57:14.320Z,12.73
2018-07-08T18:59:42.839Z,23.67
2018-07-08T19:02:11.369Z,42.33
2018-07-08T19:04:39.910Z,39.63
2018-07-08T19:07:08.549Z,24.63
2018-07-08T19:09:37.344Z,17.47
2018-07-08T19:12:05.899Z,15.33
2018-07-08T19:14:34.489Z,17.83
2018-07-08T19:17:03.070Z,24.73
2018-07-08T19:19:32.118Z,25.63
2018-07-08T19:22:00.368Z,21.87
2018-07-08T19:24:29.008Z,18.73
2018-07-08T19:26:57.652Z,18.83
2018-07-08T19:29:26.216Z,17.33
2018-07-08T19:31:54.813Z,15.27
2018-07-08T19:34:23.389Z,11.63
2018-07-08T19:36:51.926Z,10.10
2018-07-08T19:39:20.453Z,9.80
2018-07-08T19:41:49.040Z,10.40
2018-07-08T19:44:17.692Z,11.83
2018-07-08T19:46:46.220Z,14.47
2018-07-08T19:49:14.800Z,43.17
2018-07-08T19:51:43.365Z,127.33
2018-07-08T19:54:12.006Z,164.83
2018-07-08T19:56:40.936Z,130.40
2018-07-08T19:59:09.505Z,98.20
2018-07-08T20:01:38.017Z,58.13
2018-07-08T20:04:06.560Z,42.87
2018-07-08T20:06:35.097Z,27.20
2018-07-08T20:09:03.792Z,26.93
2018-07-08T20:11:32.368Z,30.23
2018-07-08T20:14:00.908Z,71.73
2018-07-08T20:16:29.472Z,76.23
2018-07-08T20:18:58.182Z,96.07
2018-07-08T20:21:26.998Z,71.70
2018-07-08T20:23:55.441Z,57.20
2018-07-08T20:26:23.993Z,47.57
2018-07-08T20:28:52.544Z,96.60
2018-07-08T20:31:21.091Z,98.50
2018-07-08T20:33:49.671Z,97.70
2018-07-08T20:36:18.259Z,74.97
2018-07-08T20:38:46.795Z,65.27
2018-07-08T20:41:15.304Z,66.73
2018-07-08T20:43:43.941Z,51.10
2018-07-08T20:46:12.490Z,46.77
2018-07-08T20:48:41.221Z,45.73
2018-07-08T20:51:09.791Z,46.43
2018-07-08T20:53:38.324Z,63.00
2018-07-08T20:56:07.011Z,94.50
2018-07-08T20:58:35.569Z,248.00
2018-07-08T21:01:04.117Z,334.33
2018-07-08T21:03:32.715Z,350.50
2018-07-08T21:06:01.241Z,339.17
2018-07-08T21:08:29.849Z,296.40
2018-07-08T21:10:58.405Z,319.87
2018-07-08T21:13:26.676Z,309.00
2018-07-08T21:15:55.281Z,279.00
2018-07-08T21:18:23.836Z,273.40
2018-07-08T21:20:52.414Z,305.80
2018-07-08T21:23:20.930Z,342.10
2018-07-08T21:25:49.556Z,224.03
2018-07-08T21:28:18.231Z,227.57
2018-07-08T21:30:46.983Z,230.57
2018-07-08T21:33:16.714Z,261.70
2018-07-08T21:35:45.608Z,246.97
2018-07-08T21:38:14.200Z,248.23
2018-07-08T21:40:42.781Z,260.93
2018-07-08T21:43:11.272Z,302.90
2018-07-08T21:45:40.596Z,328.43
2018-07-08T21:48:09.196Z,352.60
2018-07-08T21:50:38.201Z,330.93
2018-07-08T21:53:06.771Z,333.83
2018-07-08T21:55:35.872Z,309.37
2018-07-08T21:58:04.490Z,335.10
2018-07-08T22:00:34.421Z,305.37
2018-07-08T22:03:04.826Z,297.90
2018-07-08T22:05:33.660Z,295.43
2018-07-08T22:08:05.208Z,288.13
2018-07-08T22:10:34.990Z,313.07
2018-07-08T22:13:04.189Z,345.53
2018-07-08T22:15:32.717Z,350.93
2018-07-08T22:18:01.229Z,366.00
2018-07-08T22:20:33.190Z,377.23
2018-07-08T22:23:03.776Z,373.30
2018-07-08T22:25:33.240Z,391.17
2018-07-08T22:28:01.760Z,351.70
2018-07-08T22:30:30.322Z,358.10
2018-07-08T22:32:58.889Z,329.40
2018-07-08T22:35:28.976Z,327.97
2018-07-08T22:37:57.229Z,348.73
2018-07-08T22:40:27.481Z,322.50
2018-07-08T22:42:56.675Z,318.83
2018-07-08T22:45:27.196Z,327.93
2018-07-08T22:47:55.755Z,251.50
2018-07-08T22:50:24.295Z,242.40
2018-07-08T22:52:52.921Z,246.00
2018-07-08T22:55:21.432Z,219.77
2018-07-08T22:57:49.959Z,197.73
2018-07-08T23:00:23.800Z,179.60
2018-07-08T23:03:58.758Z,178.73
2018-07-08T23:06:27.316Z,206.07
2018-07-08T23:08:56.201Z,165.53
2018-07-08T23:11:25.439Z,174.93
2018-07-08T23:13:55.080Z,159.93
2018-07-08T23:16:24.265Z,155.57
2018-07-08T23:18:52.970Z,157.40
2018-07-08T23:21:21.553Z,132.50
2018-07-08T23:23:50.168Z,160.57
2018-07-08T23:26:18.689Z,162.03
2018-07-08T23:28:47.212Z,140.13
2018-07-08T23:31:15.760Z,139.90
2018-07-08T23:33:44.353Z,141.37
2018-07-08T23:36:13.259Z,143.33
2018-07-08T23:38:41.770Z,115.63
2018-07-08T23:41:11.465Z,118.20
2018-07-08T23:43:39.994Z,120.03
2018-07-08T23:46:08.568Z,119.70
2018-07-08T23:48:37.136Z,113.67
2018-07-08T23:51:05.732Z,106.40
2018-07-08T23:53:34.301Z,126.90
2018-07-08T23:56:02.902Z,135.43
2018-07-08T23:58:31.444Z,145.37
